createdAt,value
2019-03-10T00:00:03.300Z,36
2019-03-10T00:00:06.909Z,35
2019-03-10T00:00:10.346Z,33
2019-03-10T00:00:17.048Z,30
2019-03-10T00:00:19.279Z,31
2019-03-10T00:00:21.516Z,33
2019-03-10T00:00:23.700Z,32
2019-03-10T00:00:28.142Z,33
2019-03-10T00:00:33.814Z,32
2019-03-10T00:00:37.254Z,34
2019-03-10T00:00:41.695Z,33
2019-03-10T00:00:42.771Z,32
2019-03-10T00:00:44.953Z,31
2019-03-10T00:00:48.256Z,33
2019-03-10T00:00:51.467Z,34
2019-03-10T00:00:53.740Z,35
2019-03-10T00:00:57.051Z,33
2019-03-10T00:00:58.155Z,34
2019-03-10T00:01:05.655Z,31
2019-03-10T00:01:09.041Z,33
2019-03-10T00:01:11.153Z,32
2019-03-10T00:01:13.349Z,36
2019-03-10T00:01:14.398Z,35
2019-03-10T00:01:17.671Z,36
2019-03-10T00:01:21.083Z,38
2019-03-10T00:01:26.618Z,39
2019-03-10T00:01:33.177Z,37
2019-03-10T00:01:35.419Z,34
2019-03-10T00:01:39.992Z,36
2019-03-10T00:01:45.535Z,34
2019-03-10T00:01:49.930Z,33
2019-03-10T00:01:57.615Z,32
2019-03-10T00:02:02.156Z,31
2019-03-10T00:02:07.714Z,32
2019-03-10T00:02:14.042Z,33
2019-03-10T00:02:15.134Z,32
2019-03-10T00:02:21.832Z,30
2019-03-10T00:02:29.606Z,29
2019-03-10T00:02:37.428Z,28
2019-03-10T00:02:42.968Z,27
2019-03-10T00:02:46.399Z,26
2019-03-10T00:02:49.763Z,27
2019-03-10T00:02:52.077Z,28
2019-03-10T00:02:55.346Z,29
2019-03-10T00:02:57.578Z,28
2019-03-10T00:03:01.964Z,29
2019-03-10T00:03:09.831Z,30
2019-03-10T00:03:16.676Z,29
2019-03-10T00:03:18.946Z,30
2019-03-10T00:03:23.492Z,31
2019-03-10T00:03:26.937Z,33
2019-03-10T00:03:35.908Z,35
2019-03-10T00:03:40.527Z,34
2019-03-10T00:03:43.872Z,36
2019-03-10T00:03:45.982Z,35
2019-03-10T00:03:51.455Z,34
2019-03-10T00:03:53.734Z,33
2019-03-10T00:03:57.516Z,34
2019-03-10T00:03:59.751Z,31
2019-03-10T00:04:03.110Z,32
2019-03-10T00:04:08.530Z,29
2019-03-10T00:04:10.763Z,31
2019-03-10T00:04:15.105Z,30
2019-03-10T00:04:20.570Z,32
2019-03-10T00:04:27.390Z,33
2019-03-10T00:04:32.179Z,32
2019-03-10T00:04:36.677Z,33
2019-03-10T00:04:41.082Z,32
2019-03-10T00:04:46.594Z,34
2019-03-10T00:04:48.880Z,35
2019-03-10T00:04:52.193Z,34
2019-03-10T00:04:55.546Z,33
2019-03-10T00:05:02.239Z,32
2019-03-10T00:05:05.457Z,33
2019-03-10T00:05:13.145Z,32
2019-03-10T00:05:15.380Z,33
2019-03-10T00:05:19.867Z,34
2019-03-10T00:05:22.124Z,33
2019-03-10T00:05:26.855Z,34
2019-03-10T00:05:29.158Z,35
2019-03-10T00:05:30.217Z,36
2019-03-10T00:05:34.629Z,35
2019-03-10T00:05:35.737Z,36
2019-03-10T00:05:39.126Z,37
2019-03-10T00:05:40.248Z,38
2019-03-10T00:05:45.862Z,36
2019-03-10T00:05:49.188Z,37
2019-03-10T00:05:54.660Z,36
2019-03-10T00:05:55.785Z,37
2019-03-10T00:06:00.368Z,35
2019-03-10T00:06:01.483Z,34
2019-03-10T00:06:06.998Z,33
2019-03-10T00:06:09.205Z,34
2019-03-10T00:06:14.525Z,35
2019-03-10T00:06:17.009Z,37
2019-03-10T00:06:21.588Z,36
2019-03-10T00:06:26.038Z,35
2019-03-10T00:06:31.521Z,34
2019-03-10T00:06:34.884Z,33
2019-03-10T00:06:40.350Z,34
2019-03-10T00:06:43.682Z,32
2019-03-10T00:06:52.385Z,29
2019-03-10T00:07:01.233Z,30
2019-03-10T00:07:13.376Z,29
2019-03-10T00:07:17.764Z,27
2019-03-10T00:07:21.154Z,28
2019-03-10T00:07:25.650Z,27
2019-03-10T00:07:30.116Z,29
2019-03-10T00:07:35.628Z,30
2019-03-10T00:07:39.069Z,29
2019-03-10T00:07:42.471Z,31
2019-03-10T00:07:45.823Z,32
2019-03-10T00:07:50.200Z,33
2019-03-10T00:07:53.708Z,32
2019-03-10T00:08:00.262Z,33
2019-03-10T00:08:03.519Z,35
2019-03-10T00:08:12.380Z,34
2019-03-10T00:08:13.529Z,35
2019-03-10T00:08:16.875Z,34
2019-03-10T00:08:21.451Z,35
2019-03-10T00:08:23.620Z,37
2019-03-10T00:08:27.265Z,39
2019-03-10T00:08:29.575Z,38
2019-03-10T00:08:32.955Z,36
2019-03-10T00:08:38.446Z,35
2019-03-10T00:08:42.917Z,36
2019-03-10T00:08:45.146Z,37
2019-03-10T00:08:50.759Z,36
2019-03-10T00:08:58.536Z,35
2019-03-10T00:09:01.920Z,36
2019-03-10T00:09:04.114Z,35
2019-03-10T00:09:07.520Z,34
2019-03-10T00:09:15.143Z,30
2019-03-10T00:09:19.619Z,31
2019-03-10T00:09:21.921Z,30
2019-03-10T00:09:26.421Z,33
2019-03-10T00:09:29.924Z,35
2019-03-10T00:09:32.192Z,39
2019-03-10T00:09:38.717Z,38
2019-03-10T00:09:39.807Z,37
2019-03-10T00:09:44.319Z,39
2019-03-10T00:09:48.760Z,37
2019-03-10T00:09:49.821Z,39
2019-03-10T00:09:56.530Z,37
2019-03-10T00:10:02.306Z,36
2019-03-10T00:10:06.679Z,37
2019-03-10T00:10:12.242Z,39
2019-03-10T00:10:15.578Z,37
2019-03-10T00:10:19.992Z,39
2019-03-10T00:10:21.110Z,37
2019-03-10T00:10:25.516Z,36
2019-03-10T00:10:29.935Z,37
2019-03-10T00:10:31.099Z,36
2019-03-10T00:10:37.839Z,34
2019-03-10T00:10:47.822Z,33
2019-03-10T00:10:53.351Z,35
2019-03-10T00:10:55.484Z,34
2019-03-10T00:11:06.646Z,33
2019-03-10T00:11:10.070Z,32
2019-03-10T00:11:17.493Z,35
2019-03-10T00:11:50.425Z,34
2019-03-10T00:11:56.030Z,33
2019-03-10T00:11:59.500Z,32
2019-03-10T00:12:05.067Z,30
2019-03-10T00:12:14.861Z,32
2019-03-10T00:12:21.022Z,31
2019-03-10T00:12:28.929Z,32
2019-03-10T00:12:34.482Z,33
2019-03-10T00:12:40.136Z,32
2019-03-10T00:12:44.711Z,33
2019-03-10T00:12:50.365Z,34
2019-03-10T00:12:58.111Z,38
2019-03-10T00:13:00.323Z,39
2019-03-10T00:13:04.793Z,38
2019-03-10T00:13:10.443Z,37
2019-03-10T00:13:14.793Z,36
2019-03-10T00:13:22.581Z,34
2019-03-10T00:13:25.787Z,35
2019-03-10T00:13:31.343Z,31
2019-03-10T00:13:33.569Z,30
2019-03-10T00:13:37.126Z,33
2019-03-10T00:13:38.246Z,34
2019-03-10T00:13:41.595Z,33
2019-03-10T00:13:43.745Z,35
2019-03-10T00:13:47.202Z,36
2019-03-10T00:13:50.612Z,38
2019-03-10T00:13:54.000Z,39
2019-03-10T00:13:55.094Z,40
2019-03-10T00:14:04.060Z,36
2019-03-10T00:14:07.528Z,35
2019-03-10T00:14:10.921Z,36
2019-03-10T00:14:19.717Z,35
2019-03-10T00:14:20.878Z,34
2019-03-10T00:14:26.388Z,35
2019-03-10T00:14:29.684Z,34
2019-03-10T00:14:30.734Z,35
2019-03-10T00:14:34.113Z,37
2019-03-10T00:14:39.737Z,38
2019-03-10T00:14:41.992Z,37
2019-03-10T00:14:46.391Z,39
2019-03-10T00:14:50.820Z,40
2019-03-10T00:14:52.996Z,39
2019-03-10T00:14:56.304Z,37
2019-03-10T00:15:00.858Z,39
2019-03-10T00:15:01.938Z,38
2019-03-10T00:15:06.488Z,39
2019-03-10T00:15:07.572Z,40
2019-03-10T00:15:10.867Z,39
2019-03-10T00:15:17.426Z,38
2019-03-10T00:15:22.914Z,37
2019-03-10T00:15:28.404Z,36
2019-03-10T00:15:29.550Z,35
2019-03-10T00:15:34.053Z,31
2019-03-10T00:15:38.434Z,30
2019-03-10T00:15:41.895Z,31
2019-03-10T00:15:44.212Z,30
2019-03-10T00:15:47.525Z,29
2019-03-10T00:15:50.893Z,30
2019-03-10T00:15:57.779Z,33
2019-03-10T00:16:04.404Z,35
2019-03-10T00:16:07.791Z,36
2019-03-10T00:16:15.540Z,37
2019-03-10T00:16:19.265Z,38
2019-03-10T00:16:22.508Z,39
2019-03-10T00:16:31.279Z,38
2019-03-10T00:16:35.832Z,35
2019-03-10T00:16:41.327Z,36
2019-03-10T00:16:42.419Z,35
2019-03-10T00:16:46.761Z,36
2019-03-10T00:16:50.067Z,35
2019-03-10T00:16:54.478Z,34
2019-03-10T00:16:57.907Z,33
2019-03-10T00:17:01.286Z,34
2019-03-10T00:17:02.378Z,35
2019-03-10T00:17:04.509Z,34
2019-03-10T00:17:12.147Z,33
2019-03-10T00:17:18.719Z,32
2019-03-10T00:17:25.232Z,34
2019-03-10T00:17:27.398Z,33
2019-03-10T00:17:29.711Z,34
2019-03-10T00:17:34.210Z,32
2019-03-10T00:17:41.995Z,33
2019-03-10T00:17:45.460Z,34
2019-03-10T00:17:48.726Z,35
2019-03-10T00:17:54.346Z,34
2019-03-10T00:17:55.457Z,33
2019-03-10T00:17:58.811Z,32
2019-03-10T00:18:02.231Z,30
2019-03-10T00:18:05.619Z,32
2019-03-10T00:18:12.251Z,31
2019-03-10T00:18:16.742Z,32
2019-03-10T00:18:21.206Z,33
2019-03-10T00:18:27.939Z,34
2019-03-10T00:18:32.286Z,35
2019-03-10T00:18:35.524Z,34
2019-03-10T00:18:39.940Z,35
2019-03-10T00:18:43.263Z,36
2019-03-10T00:18:49.930Z,33
2019-03-10T00:18:52.211Z,34
2019-03-10T00:18:57.866Z,33
2019-03-10T00:19:01.145Z,34
2019-03-10T00:19:07.927Z,33
2019-03-10T00:19:11.187Z,32
2019-03-10T00:19:21.263Z,33
2019-03-10T00:19:28.052Z,34
2019-03-10T00:19:30.290Z,35
2019-03-10T00:19:44.538Z,34
2019-03-10T00:19:47.839Z,33
2019-03-10T00:19:51.167Z,34
2019-03-10T00:19:54.431Z,33
2019-03-10T00:20:07.123Z,32
2019-03-10T00:20:17.010Z,33
2019-03-10T00:20:20.365Z,31
2019-03-10T00:20:22.733Z,33
2019-03-10T00:20:28.067Z,32
2019-03-10T00:20:35.968Z,33
2019-03-10T00:20:38.197Z,32
2019-03-10T00:20:43.840Z,31
2019-03-10T00:20:49.381Z,33
2019-03-10T00:20:51.534Z,34
2019-03-10T00:20:54.978Z,33
2019-03-10T00:20:58.253Z,38
2019-03-10T00:21:01.597Z,37
2019-03-10T00:21:03.925Z,39
2019-03-10T00:21:12.671Z,41
2019-03-10T00:21:14.954Z,42
2019-03-10T00:21:19.312Z,40
2019-03-10T00:21:22.672Z,38
2019-03-10T00:21:29.417Z,34
2019-03-10T00:21:31.801Z,35
2019-03-10T00:21:36.327Z,33
2019-03-10T00:21:40.817Z,32
2019-03-10T00:21:44.257Z,31
2019-03-10T00:21:47.661Z,32
2019-03-10T00:21:53.157Z,30
2019-03-10T00:21:59.818Z,28
2019-03-10T00:22:05.586Z,27
2019-03-10T00:22:10.067Z,28
2019-03-10T00:22:13.400Z,30
2019-03-10T00:22:16.735Z,31
2019-03-10T00:22:20.075Z,32
2019-03-10T00:22:23.475Z,33
2019-03-10T00:22:30.013Z,31
2019-03-10T00:22:34.504Z,33
2019-03-10T00:22:36.824Z,32
2019-03-10T00:22:43.466Z,33
2019-03-10T00:22:45.727Z,35
2019-03-10T00:22:51.224Z,36
2019-03-10T00:22:56.761Z,37
2019-03-10T00:23:00.167Z,38
2019-03-10T00:23:12.309Z,37
2019-03-10T00:23:16.761Z,38
2019-03-10T00:23:17.836Z,37
2019-03-10T00:23:25.470Z,38
2019-03-10T00:23:29.422Z,36
2019-03-10T00:23:38.304Z,33
2019-03-10T00:23:43.786Z,32
2019-03-10T00:23:58.266Z,31
2019-03-10T00:24:00.526Z,30
2019-03-10T00:24:07.221Z,29
2019-03-10T00:24:09.412Z,31
2019-03-10T00:24:13.752Z,32
2019-03-10T00:24:14.834Z,33
2019-03-10T00:24:16.980Z,34
2019-03-10T00:24:26.865Z,35
2019-03-10T00:24:34.707Z,34
2019-03-10T00:24:44.669Z,35
2019-03-10T00:24:48.060Z,36
2019-03-10T00:24:52.600Z,35
2019-03-10T00:24:57.066Z,36
2019-03-10T00:25:00.413Z,35
2019-03-10T00:25:03.685Z,33
2019-03-10T00:25:12.612Z,34
2019-03-10T00:25:23.605Z,36
2019-03-10T00:25:36.859Z,34
2019-03-10T00:25:39.137Z,35
2019-03-10T00:25:44.884Z,33
2019-03-10T00:25:51.478Z,34
2019-03-10T00:25:54.854Z,35
2019-03-10T00:25:58.097Z,33
2019-03-10T00:26:03.689Z,34
2019-03-10T00:26:32.990Z,33
2019-03-10T00:26:37.382Z,32
2019-03-10T00:26:42.892Z,33
2019-03-10T00:26:45.134Z,34
2019-03-10T00:26:48.466Z,35
2019-03-10T00:26:51.810Z,32
2019-03-10T00:26:58.412Z,33
2019-03-10T00:27:04.995Z,34
2019-03-10T00:27:08.315Z,35
2019-03-10T00:27:11.615Z,36
2019-03-10T00:27:16.090Z,35
2019-03-10T00:27:17.231Z,37
2019-03-10T00:27:27.308Z,36
2019-03-10T00:27:32.888Z,32
2019-03-10T00:27:38.399Z,31
2019-03-10T00:27:45.064Z,33
2019-03-10T00:27:47.393Z,34
2019-03-10T00:27:52.930Z,33
2019-03-10T00:27:57.670Z,34
2019-03-10T00:28:03.300Z,33
2019-03-10T00:28:11.157Z,34
2019-03-10T00:28:12.285Z,35
2019-03-10T00:28:14.445Z,36
2019-03-10T00:28:18.230Z,35
2019-03-10T00:28:23.872Z,36
2019-03-10T00:28:27.530Z,35
2019-03-10T00:28:38.577Z,32
2019-03-10T00:28:39.745Z,33
2019-03-10T00:28:41.872Z,32
2019-03-10T00:28:45.149Z,33
2019-03-10T00:28:52.879Z,32
2019-03-10T00:28:57.307Z,31
2019-03-10T00:29:01.798Z,32
2019-03-10T00:29:02.878Z,33
2019-03-10T00:29:07.509Z,31
2019-03-10T00:29:11.988Z,30
2019-03-10T00:29:19.936Z,31
2019-03-10T00:29:25.608Z,32
2019-03-10T00:29:27.909Z,31
2019-03-10T00:29:32.321Z,32
2019-03-10T00:29:43.273Z,33
2019-03-10T00:29:53.335Z,35
2019-03-10T00:29:56.642Z,34
2019-03-10T00:29:59.885Z,33
2019-03-10T00:30:08.887Z,32
2019-03-10T00:30:15.504Z,31
2019-03-10T00:30:17.888Z,32
2019-03-10T00:30:24.602Z,33
2019-03-10T00:30:31.388Z,35
2019-03-10T00:30:35.763Z,36
2019-03-10T00:30:41.365Z,35
2019-03-10T00:30:47.456Z,33
2019-03-10T00:30:49.747Z,34
2019-03-10T00:30:57.720Z,33
2019-03-10T00:31:04.479Z,34
2019-03-10T00:31:07.921Z,33
2019-03-10T00:31:11.281Z,32
2019-03-10T00:31:20.343Z,31
2019-03-10T00:31:25.895Z,32
2019-03-10T00:31:30.600Z,33
2019-03-10T00:31:38.281Z,32
2019-03-10T00:31:43.830Z,31
2019-03-10T00:31:46.044Z,32
2019-03-10T00:31:50.603Z,33
2019-03-10T00:31:52.878Z,34
2019-03-10T00:31:58.420Z,35
2019-03-10T00:32:01.878Z,34
2019-03-10T00:32:04.125Z,35
2019-03-10T00:32:11.889Z,36
2019-03-10T00:32:15.175Z,35
2019-03-10T00:32:17.357Z,34
2019-03-10T00:32:20.734Z,36
2019-03-10T00:32:25.107Z,37
2019-03-10T00:32:27.376Z,36
2019-03-10T00:32:31.837Z,35
2019-03-10T00:32:37.462Z,34
2019-03-10T00:32:42.885Z,32
2019-03-10T00:32:48.383Z,33
2019-03-10T00:32:57.192Z,35
2019-03-10T00:33:05.141Z,33
2019-03-10T00:33:09.555Z,34
2019-03-10T00:33:15.021Z,31
2019-03-10T00:33:21.681Z,32
2019-03-10T00:33:26.306Z,31
2019-03-10T00:33:35.196Z,30
2019-03-10T00:33:39.781Z,29
2019-03-10T00:33:45.232Z,30
2019-03-10T00:33:50.754Z,31
2019-03-10T00:33:54.201Z,30
2019-03-10T00:33:57.514Z,31
2019-03-10T00:34:03.112Z,33
2019-03-10T00:34:07.478Z,34
2019-03-10T00:34:10.856Z,33
2019-03-10T00:34:12.999Z,32
2019-03-10T00:34:18.067Z,33
2019-03-10T00:34:21.363Z,34
2019-03-10T00:34:24.593Z,33
2019-03-10T00:34:25.690Z,32
2019-03-10T00:34:32.524Z,33
2019-03-10T00:34:35.914Z,32
2019-03-10T00:34:42.606Z,31
2019-03-10T00:34:50.531Z,32
2019-03-10T00:34:53.902Z,34
2019-03-10T00:35:16.491Z,35
2019-03-10T00:35:19.852Z,36
2019-03-10T00:35:28.809Z,35
2019-03-10T00:35:33.194Z,34
2019-03-10T00:35:35.525Z,36
2019-03-10T00:35:41.158Z,34
2019-03-10T00:35:46.689Z,33
2019-03-10T00:35:56.712Z,32
2019-03-10T00:36:03.425Z,33
2019-03-10T00:36:05.683Z,32
2019-03-10T00:36:16.024Z,31
2019-03-10T00:36:19.339Z,30
2019-03-10T00:36:23.829Z,29
2019-03-10T00:36:29.541Z,30
2019-03-10T00:36:34.121Z,28
2019-03-10T00:36:42.203Z,27
2019-03-10T00:36:49.967Z,28
2019-03-10T00:36:56.662Z,29
2019-03-10T00:37:05.622Z,30
2019-03-10T00:37:10.164Z,31
2019-03-10T00:37:13.534Z,32
2019-03-10T00:37:15.736Z,31
2019-03-10T00:37:20.282Z,30
2019-03-10T00:37:22.549Z,31
2019-03-10T00:37:28.103Z,32
2019-03-10T00:37:31.512Z,33
2019-03-10T00:37:34.833Z,32
2019-03-10T00:37:39.317Z,31
2019-03-10T00:37:49.359Z,36
2019-03-10T00:37:52.796Z,34
2019-03-10T00:37:58.341Z,33
2019-03-10T00:38:02.875Z,34
2019-03-10T00:38:07.213Z,33
2019-03-10T00:38:12.640Z,34
2019-03-10T00:38:17.091Z,32
2019-03-10T00:38:26.015Z,31
2019-03-10T00:38:31.660Z,33
2019-03-10T00:38:36.084Z,32
2019-03-10T00:38:41.587Z,30
2019-03-10T00:38:42.782Z,31
2019-03-10T00:38:46.020Z,30
2019-03-10T00:38:51.696Z,31
2019-03-10T00:38:59.363Z,32
2019-03-10T00:39:02.739Z,33
2019-03-10T00:39:07.112Z,32
2019-03-10T00:39:12.708Z,33
2019-03-10T00:39:21.494Z,34
2019-03-10T00:39:24.852Z,35
2019-03-10T00:39:34.822Z,34
2019-03-10T00:39:40.250Z,33
2019-03-10T00:39:54.257Z,31
2019-03-10T00:39:57.705Z,32
2019-03-10T00:40:01.001Z,30
2019-03-10T00:40:08.886Z,29
2019-03-10T00:40:19.172Z,31
2019-03-10T00:40:24.885Z,33
2019-03-10T00:40:34.765Z,32
2019-03-10T00:40:42.644Z,34
2019-03-10T00:40:53.462Z,25
2019-03-10T00:40:56.858Z,27
2019-03-10T00:41:01.402Z,28
2019-03-10T00:41:06.954Z,29
2019-03-10T00:41:18.257Z,31
2019-03-10T00:41:20.499Z,32
2019-03-10T00:41:24.970Z,34
2019-03-10T00:41:29.361Z,35
2019-03-10T00:41:37.046Z,34
2019-03-10T00:41:49.249Z,33
2019-03-10T00:41:53.707Z,32
2019-03-10T00:42:06.111Z,31
2019-03-10T00:42:09.454Z,32
2019-03-10T00:42:19.451Z,31
2019-03-10T00:42:22.779Z,32
2019-03-10T00:42:25.993Z,31
2019-03-10T00:42:29.343Z,32
2019-03-10T00:42:37.178Z,31
2019-03-10T00:42:42.849Z,32
2019-03-10T00:42:46.178Z,33
2019-03-10T00:42:51.604Z,32
2019-03-10T00:42:55.159Z,31
2019-03-10T00:42:58.440Z,30
2019-03-10T00:43:04.006Z,31
2019-03-10T00:43:07.436Z,32
2019-03-10T00:43:23.013Z,31
2019-03-10T00:43:28.569Z,30
2019-03-10T00:43:35.210Z,31
2019-03-10T00:43:40.912Z,32
2019-03-10T00:43:46.643Z,31
2019-03-10T00:43:56.663Z,32
2019-03-10T00:44:01.165Z,31
2019-03-10T00:44:02.267Z,32
2019-03-10T00:44:10.097Z,33
2019-03-10T00:44:17.584Z,32
2019-03-10T00:44:19.906Z,31
2019-03-10T00:44:28.874Z,33
2019-03-10T00:44:33.352Z,32
2019-03-10T00:44:40.063Z,30
2019-03-10T00:44:43.546Z,31
2019-03-10T00:44:45.686Z,32
2019-03-10T00:44:52.394Z,31
2019-03-10T00:44:56.867Z,30
2019-03-10T00:45:01.474Z,29
2019-03-10T00:45:07.076Z,30
2019-03-10T00:45:15.015Z,28
2019-03-10T00:45:18.389Z,29
2019-03-10T00:45:21.832Z,30
2019-03-10T00:45:29.742Z,31
2019-03-10T00:45:33.142Z,30
2019-03-10T00:45:39.718Z,31
2019-03-10T00:45:41.977Z,30
2019-03-10T00:45:48.546Z,28
2019-03-10T00:45:57.353Z,29
2019-03-10T00:46:04.136Z,30
2019-03-10T00:46:21.141Z,31
2019-03-10T00:46:30.200Z,32
2019-03-10T00:46:31.291Z,33
2019-03-10T00:46:33.534Z,34
2019-03-10T00:46:36.955Z,32
2019-03-10T00:46:47.805Z,31
2019-03-10T00:46:51.251Z,30
2019-03-10T00:47:00.159Z,29
2019-03-10T00:47:05.704Z,28
2019-03-10T00:47:12.304Z,29
2019-03-10T00:47:17.536Z,28
2019-03-10T00:47:19.852Z,29
2019-03-10T00:47:26.549Z,30
2019-03-10T00:47:28.824Z,31
2019-03-10T00:47:32.063Z,33
2019-03-10T00:47:38.813Z,34
2019-03-10T00:47:42.188Z,35
2019-03-10T00:47:48.777Z,36
2019-03-10T00:47:51.011Z,35
2019-03-10T00:47:56.572Z,34
2019-03-10T00:48:04.472Z,33
2019-03-10T00:48:11.184Z,31
2019-03-10T00:48:13.509Z,32
2019-03-10T00:48:15.856Z,30
2019-03-10T00:48:20.286Z,29
2019-03-10T00:48:28.178Z,28
2019-03-10T00:48:32.678Z,27
2019-03-10T00:48:34.970Z,26
2019-03-10T00:48:40.511Z,27
2019-03-10T00:48:52.878Z,28
2019-03-10T00:49:02.879Z,30
2019-03-10T00:49:08.562Z,31
2019-03-10T00:49:15.293Z,32
2019-03-10T00:49:28.752Z,34
2019-03-10T00:49:35.556Z,32
2019-03-10T00:49:43.576Z,31
2019-03-10T00:49:48.095Z,30
2019-03-10T00:49:51.516Z,31
2019-03-10T00:49:59.411Z,30
2019-03-10T00:50:05.024Z,29
2019-03-10T00:50:09.639Z,28
2019-03-10T00:50:13.943Z,27
2019-03-10T00:50:22.763Z,26
2019-03-10T00:50:28.479Z,25
2019-03-10T00:50:31.937Z,26
2019-03-10T00:50:35.275Z,27
2019-03-10T00:50:38.693Z,26
2019-03-10T00:50:46.539Z,27
2019-03-10T00:50:49.941Z,26
2019-03-10T00:50:53.377Z,25
2019-03-10T00:51:05.552Z,31
2019-03-10T00:51:10.011Z,30
2019-03-10T00:51:20.088Z,28
2019-03-10T00:51:24.587Z,27
2019-03-10T00:51:29.124Z,26
2019-03-10T00:51:36.697Z,27
2019-03-10T00:51:37.823Z,26
2019-03-10T00:51:43.460Z,27
2019-03-10T00:51:49.129Z,26
2019-03-10T00:51:54.858Z,27
2019-03-10T00:51:59.115Z,26
2019-03-10T00:52:08.089Z,27
2019-03-10T00:52:12.507Z,28
2019-03-10T00:52:20.488Z,29
2019-03-10T00:52:24.870Z,30
2019-03-10T00:52:34.815Z,29
2019-03-10T00:52:39.291Z,30
2019-03-10T00:52:44.795Z,31
2019-03-10T00:52:50.421Z,30
2019-03-10T00:52:57.135Z,31
2019-03-10T00:53:07.041Z,33
2019-03-10T00:53:17.056Z,31
2019-03-10T00:53:22.873Z,33
2019-03-10T00:53:26.324Z,34
2019-03-10T00:53:28.638Z,35
2019-03-10T00:53:33.209Z,36
2019-03-10T00:53:35.495Z,33
2019-03-10T00:53:39.930Z,34
2019-03-10T00:53:42.213Z,33
2019-03-10T00:53:46.726Z,32
2019-03-10T00:53:50.115Z,34
2019-03-10T00:53:55.808Z,32
2019-03-10T00:54:01.495Z,30
2019-03-10T00:54:05.986Z,32
2019-03-10T00:54:11.572Z,33
2019-03-10T00:54:13.795Z,32
2019-03-10T00:54:24.477Z,31
2019-03-10T00:54:29.010Z,32
2019-03-10T00:54:38.998Z,31
2019-03-10T00:54:43.589Z,30
2019-03-10T00:54:58.175Z,28
2019-03-10T00:55:10.404Z,25
2019-03-10T00:55:13.821Z,24
2019-03-10T00:55:18.238Z,23
2019-03-10T00:55:25.963Z,25
2019-03-10T00:55:30.576Z,26
2019-03-10T00:55:33.945Z,28
2019-03-10T00:55:39.416Z,29
2019-03-10T00:55:43.937Z,28
2019-03-10T00:55:47.320Z,27
2019-03-10T00:55:49.643Z,28
2019-03-10T00:55:54.106Z,27
2019-03-10T00:55:59.703Z,26
2019-03-10T00:56:04.164Z,24
2019-03-10T00:56:08.612Z,23
2019-03-10T00:56:17.618Z,24
2019-03-10T00:56:24.376Z,25
2019-03-10T00:56:39.846Z,26
2019-03-10T00:56:46.515Z,27
2019-03-10T00:56:58.789Z,26
2019-03-10T00:57:02.146Z,27
2019-03-10T00:57:11.957Z,28
2019-03-10T00:57:15.324Z,29
2019-03-10T00:57:20.763Z,28
2019-03-10T00:57:26.437Z,27
2019-03-10T00:57:29.873Z,26
2019-03-10T00:57:37.620Z,24
2019-03-10T00:57:43.220Z,25
2019-03-10T00:57:52.151Z,26
2019-03-10T00:57:59.825Z,28
2019-03-10T00:58:10.890Z,30
2019-03-10T00:58:15.425Z,33
2019-03-10T00:58:23.123Z,35
2019-03-10T00:58:26.554Z,37
2019-03-10T00:58:27.797Z,36
2019-03-10T00:58:31.434Z,35
2019-03-10T00:58:33.684Z,34
2019-03-10T00:58:39.304Z,32
2019-03-10T00:58:46.161Z,30
2019-03-10T00:58:51.667Z,29
2019-03-10T00:58:57.266Z,28
2019-03-10T00:59:00.924Z,33
2019-03-10T00:59:06.446Z,35
2019-03-10T00:59:14.130Z,24
2019-03-10T00:59:19.819Z,23
2019-03-10T00:59:27.547Z,24
2019-03-10T00:59:40.864Z,25
2019-03-10T00:59:45.307Z,26
2019-03-10T00:59:51.060Z,28
2019-03-10T00:59:56.652Z,27
2019-03-10T01:00:03.821Z,28
2019-03-10T01:00:08.135Z,30
2019-03-10T01:00:11.671Z,31
2019-03-10T01:00:13.896Z,32
2019-03-10T01:00:17.313Z,34
2019-03-10T01:00:20.681Z,35
2019-03-10T01:00:26.301Z,34
2019-03-10T01:00:28.446Z,32
2019-03-10T01:00:32.820Z,33
2019-03-10T01:00:38.393Z,32
2019-03-10T01:00:41.750Z,31
2019-03-10T01:00:47.456Z,29
2019-03-10T01:00:50.955Z,30
2019-03-10T01:00:53.158Z,31
2019-03-10T01:00:57.668Z,30
2019-03-10T01:01:03.324Z,29
2019-03-10T01:01:08.845Z,30
2019-03-10T01:01:16.561Z,31
2019-03-10T01:01:23.211Z,32
2019-03-10T01:01:27.638Z,31
2019-03-10T01:01:33.145Z,30
2019-03-10T01:01:35.490Z,32
2019-03-10T01:01:40.993Z,33
2019-03-10T01:01:47.866Z,32
2019-03-10T01:01:53.469Z,31
2019-03-10T01:02:00.156Z,30
2019-03-10T01:02:04.585Z,31
2019-03-10T01:02:12.448Z,29
2019-03-10T01:02:15.786Z,30
2019-03-10T01:02:21.370Z,31
2019-03-10T01:02:23.726Z,29
2019-03-10T01:02:27.196Z,28
2019-03-10T01:02:35.223Z,27
2019-03-10T01:02:43.147Z,25
2019-03-10T01:02:50.990Z,24
2019-03-10T01:02:56.698Z,26
2019-03-10T01:03:02.321Z,29
2019-03-10T01:03:04.563Z,32
2019-03-10T01:03:07.950Z,34
2019-03-10T01:03:12.349Z,36
2019-03-10T01:03:19.016Z,29
2019-03-10T01:03:26.791Z,30
2019-03-10T01:03:34.654Z,29
2019-03-10T01:03:40.359Z,27
2019-03-10T01:03:49.208Z,28
2019-03-10T01:03:51.438Z,27
2019-03-10T01:03:57.134Z,26
2019-03-10T01:04:10.451Z,27
2019-03-10T01:04:26.011Z,26
2019-03-10T01:04:33.789Z,28
2019-03-10T01:04:37.140Z,26
2019-03-10T01:04:40.593Z,27
2019-03-10T01:04:46.293Z,28
2019-03-10T01:04:50.680Z,27
2019-03-10T01:04:56.337Z,29
2019-03-10T01:04:58.919Z,28
2019-03-10T01:05:04.750Z,29
2019-03-10T01:05:11.556Z,27
2019-03-10T01:05:22.448Z,28
2019-03-10T01:05:27.014Z,29
2019-03-10T01:05:32.522Z,28
2019-03-10T01:05:38.131Z,29
2019-03-10T01:05:41.435Z,28
2019-03-10T01:05:47.102Z,27
2019-03-10T01:06:01.696Z,28
2019-03-10T01:06:05.077Z,29
2019-03-10T01:06:08.525Z,28
2019-03-10T01:06:13.124Z,29
2019-03-10T01:06:18.732Z,28
2019-03-10T01:06:23.145Z,26
2019-03-10T01:06:28.761Z,27
2019-03-10T01:06:39.703Z,28
2019-03-10T01:06:45.222Z,29
2019-03-10T01:06:57.458Z,30
2019-03-10T01:06:58.697Z,29
2019-03-10T01:07:03.034Z,30
2019-03-10T01:07:07.869Z,29
2019-03-10T01:07:08.982Z,28
2019-03-10T01:07:14.879Z,27
2019-03-10T01:07:23.827Z,26
2019-03-10T01:07:28.303Z,27
2019-03-10T01:07:35.018Z,28
2019-03-10T01:07:41.567Z,27
2019-03-10T01:07:47.199Z,26
2019-03-10T01:07:52.609Z,27
2019-03-10T01:07:59.352Z,28
2019-03-10T01:08:06.060Z,27
2019-03-10T01:08:13.816Z,26
2019-03-10T01:08:37.077Z,27
2019-03-10T01:08:41.564Z,26
2019-03-10T01:09:01.318Z,25
2019-03-10T01:09:08.991Z,26
2019-03-10T01:09:16.698Z,25
2019-03-10T01:09:20.063Z,24
2019-03-10T01:09:25.642Z,26
2019-03-10T01:09:37.782Z,27
2019-03-10T01:09:42.230Z,25
2019-03-10T01:09:49.011Z,27
2019-03-10T01:09:51.378Z,28
2019-03-10T01:09:54.836Z,27
2019-03-10T01:09:59.417Z,29
2019-03-10T01:10:03.789Z,28
2019-03-10T01:10:06.134Z,29
2019-03-10T01:10:10.641Z,30
2019-03-10T01:10:12.917Z,31
2019-03-10T01:10:18.610Z,33
2019-03-10T01:10:27.465Z,47
2019-03-10T01:10:30.819Z,48
2019-03-10T01:10:35.194Z,46
2019-03-10T01:10:38.576Z,49
2019-03-10T01:10:42.005Z,48
2019-03-10T01:10:47.573Z,47
2019-03-10T01:10:49.859Z,46
2019-03-10T01:10:55.446Z,43
2019-03-10T01:10:58.786Z,40
2019-03-10T01:11:08.752Z,41
2019-03-10T01:11:13.323Z,39
2019-03-10T01:11:17.888Z,38
2019-03-10T01:11:23.551Z,37
2019-03-10T01:11:26.874Z,38
2019-03-10T01:11:29.120Z,39
2019-03-10T01:11:34.677Z,37
2019-03-10T01:11:39.045Z,36
2019-03-10T01:11:44.604Z,37
2019-03-10T01:11:50.080Z,39
2019-03-10T01:11:55.692Z,40
2019-03-10T01:11:59.104Z,38
2019-03-10T01:12:04.628Z,37
2019-03-10T01:12:07.906Z,38
2019-03-10T01:12:15.929Z,36
2019-03-10T01:12:22.680Z,38
2019-03-10T01:12:29.266Z,30
2019-03-10T01:12:35.921Z,31
2019-03-10T01:12:41.575Z,30
2019-03-10T01:12:44.967Z,28
2019-03-10T01:12:49.516Z,29
2019-03-10T01:12:52.848Z,30
2019-03-10T01:12:56.331Z,29
2019-03-10T01:13:01.989Z,28
2019-03-10T01:13:05.071Z,29
2019-03-10T01:13:09.560Z,28
2019-03-10T01:13:12.913Z,29
2019-03-10T01:13:16.223Z,30
2019-03-10T01:13:21.833Z,31
2019-03-10T01:13:24.005Z,30
2019-03-10T01:13:25.093Z,31
2019-03-10T01:13:28.520Z,30
2019-03-10T01:13:35.191Z,31
2019-03-10T01:13:40.731Z,34
2019-03-10T01:13:46.526Z,41
2019-03-10T01:13:51.044Z,47
2019-03-10T01:13:54.396Z,50
2019-03-10T01:13:58.879Z,55
2019-03-10T01:14:02.313Z,56
2019-03-10T01:14:06.846Z,59
2019-03-10T01:14:09.114Z,61
2019-03-10T01:14:18.752Z,62
2019-03-10T01:14:22.158Z,64
2019-03-10T01:14:30.776Z,41